Time;durP1;ratioP1;P1;durP2;ratioP2;P2;SDS_P1;SDS_P2;PMS_P1;PMS_P2;Temp;Humidity;BMP_temperature;BMP_pressure;BME280_temperature;BME280_humidity;BME280_pressure;Samples;Min_cycle;Max_cycle;Signal;HPM_P1;HPM_P2
2023/11/10 00:01:08;;;;;;;6.23;1.30;;;8.50;1.00;;;;;;4935810;29;20194;-84
2023/11/10 00:03:33;;;;;;;5.90;1.23;;;8.50;1.00;;;;;;4937222;29;20193;-84
2023/11/10 00:05:59;;;;;;;4.07;1.40;;;8.50;1.00;;;;;;4937072;29;21196;-85
2023/11/10 00:08:24;;;;;;;4.43;1.57;;;8.50;1.00;;;;;;4933387;29;20209;-85
2023/11/10 00:10:51;;;;;;;4.60;1.30;;;8.60;1.00;;;;;;4933633;29;20202;-85
2023/11/10 00:13:18;;;;;;;3.80;1.70;;;8.60;1.00;;;;;;4935950;28;20720;-85
2023/11/10 00:15:43;;;;;;;3.20;1.50;;;8.60;1.00;;;;;;4949266;29;20952;-85
2023/11/10 00:18:09;;;;;;;7.60;1.80;;;8.60;99.90;;;;;;4935848;29;20485;-85
2023/11/10 00:20:36;;;;;;;1.40;1.20;;;8.70;99.90;;;;;;4934950;29;20281;-85
2023/11/10 00:23:03;;;;;;;5.93;1.47;;;8.70;99.90;;;;;;4937326;29;20249;-84
2023/11/10 00:25:28;;;;;;;6.00;1.20;;;8.70;99.90;;;;;;4936260;29;20466;-86
2023/11/10 00:27:54;;;;;;;4.23;2.03;;;8.70;99.90;;;;;;4951418;29;20867;-85
2023/11/10 00:30:20;;;;;;;2.93;1.73;;;8.70;1.00;;;;;;4936921;29;20845;-84
2023/11/10 00:32:45;;;;;;;6.27;1.57;;;8.70;1.00;;;;;;4934477;29;20218;-84
2023/11/10 00:35:11;;;;;;;7.83;1.70;;;8.70;1.00;;;;;;4925911;29;20254;-84
2023/11/10 00:37:37;;;;;;;4.07;1.40;;;8.70;1.00;;;;;;4936795;29;20206;-85
2023/11/10 00:40:03;;;;;;;5.70;2.37;;;8.70;1.00;;;;;;4938064;29;20298;-84
2023/11/10 00:42:29;;;;;;;3.50;1.77;;;8.80;1.00;;;;;;4938364;29;20193;-84
2023/11/10 00:44:56;;;;;;;7.70;1.70;;;8.70;1.00;;;;;;4936862;29;20591;-85
2023/11/10 00:47:22;;;;;;;5.93;1.73;;;8.80;1.00;;;;;;4952330;29;20462;-84
2023/11/10 00:49:47;;;;;;;3.50;1.53;;;8.80;1.00;;;;;;4951212;28;20468;-84
2023/11/10 00:52:13;;;;;;;7.00;2.00;;;8.80;1.00;;;;;;4936848;29;20237;-84
2023/11/10 00:54:38;;;;;;;3.40;1.60;;;8.80;1.00;;;;;;4930068;29;20197;-86
2023/11/10 00:57:04;;;;;;;4.07;1.50;;;8.80;1.00;;;;;;4962638;23;20232;-87
2023/11/10 00:59:30;;;;;;;4.20;1.70;;;8.80;1.00;;;;;;4952244;29;20185;-89
2023/11/10 01:01:55;;;;;;;2.67;1.63;;;8.80;1.00;;;;;;4951806;29;20284;-88
2023/11/10 01:04:21;;;;;;;4.43;1.70;;;8.80;1.00;;;;;;4946259;28;20186;-88
2023/11/10 01:06:46;;;;;;;6.20;1.90;;;8.80;1.00;;;;;;4955407;28;20245;-88
2023/11/10 01:09:12;;;;;;;6.90;1.60;;;8.80;1.00;;;;;;4944061;28;20225;-88
2023/11/10 01:11:37;;;;;;;5.30;1.40;;;8.80;1.00;;;;;;4937832;29;20190;-87
2023/11/10 01:14:04;;;;;;;4.03;2.17;;;8.80;1.00;;;;;;4941829;29;20190;-89
2023/11/10 01:16:30;;;;;;;6.63;2.00;;;8.80;1.00;;;;;;4940472;29;20273;-88
2023/11/10 01:18:56;;;;;;;2.33;2.03;;;8.80;1.00;;;;;;4938507;29;20501;-88
2023/11/10 01:21:21;;;;;;;3.20;1.40;;;8.80;1.00;;;;;;4938574;29;20201;-88
2023/11/10 01:23:47;;;;;;;4.00;1.53;;;8.70;1.00;;;;;;4944866;29;20201;-88
2023/11/10 01:26:15;;;;;;;3.23;2.00;;;8.70;99.90;;;;;;4944863;28;20492;-88
2023/11/10 01:28:41;;;;;;;6.37;3.17;;;8.80;99.90;;;;;;4934771;29;20513;-88
2023/11/10 01:31:06;;;;;;;4.30;1.83;;;8.70;99.90;;;;;;4953345;28;20438;-85
2023/11/10 01:33:32;;;;;;;6.23;2.00;;;8.80;99.90;;;;;;4939891;29;20190;-88
2023/11/10 01:35:57;;;;;;;3.10;1.77;;;8.80;99.90;;;;;;4939515;29;20186;-88
2023/11/10 01:38:23;;;;;;;6.60;1.63;;;8.80;99.90;;;;;;4943639;29;20280;-88
2023/11/10 01:40:50;;;;;;;6.80;1.80;;;8.80;99.90;;;;;;4948311;29;20567;-88
2023/11/10 01:43:16;;;;;;;3.10;1.60;;;8.90;99.90;;;;;;4944560;29;20584;-88
2023/11/10 01:45:42;;;;;;;8.60;2.00;;;8.80;99.90;;;;;;4945774;28;20452;-88
2023/11/10 01:48:08;;;;;;;6.07;1.30;;;8.90;99.90;;;;;;4939752;29;20202;-86
2023/11/10 01:50:34;;;;;;;7.30;1.50;;;8.80;99.90;;;;;;4946314;28;20526;-88
2023/11/10 01:53:01;;;;;;;2.47;1.20;;;8.80;99.90;;;;;;4946192;29;20852;-88
2023/11/10 01:55:27;;;;;;;9.20;1.30;;;8.80;99.90;;;;;;4946106;28;20178;-88
2023/11/10 01:57:54;;;;;;;3.50;1.67;;;8.80;99.90;;;;;;4949385;28;20528;-88
2023/11/10 02:00:21;;;;;;;3.27;1.40;;;8.80;99.90;;;;;;4951956;28;20503;-88
2023/11/10 02:02:48;;;;;;;12.23;1.67;;;8.90;99.90;;;;;;4942669;29;21007;-88
2023/11/10 02:05:14;;;;;;;5.37;1.83;;;8.80;99.90;;;;;;4945290;28;20519;-90
2023/11/10 02:07:40;;;;;;;2.77;1.23;;;8.90;99.90;;;;;;4945736;28;20461;-89
2023/11/10 02:10:07;;;;;;;3.20;1.23;;;8.90;99.90;;;;;;4949752;28;20476;-88
2023/11/10 02:12:32;;;;;;;4.00;1.97;;;8.90;99.90;;;;;;4938415;28;20461;-88
2023/11/10 02:14:58;;;;;;;5.70;1.43;;;8.90;99.90;;;;;;4945489;29;20437;-88
2023/11/10 02:17:23;;;;;;;5.83;1.77;;;8.90;99.90;;;;;;4948717;28;20211;-88
2023/11/10 02:19:49;;;;;;;4.33;1.73;;;8.90;99.90;;;;;;4951908;28;20676;-88
2023/11/10 02:22:14;;;;;;;5.63;1.23;;;8.90;99.90;;;;;;4938971;29;20193;-88
2023/11/10 02:24:43;;;;;;;3.00;1.53;;;8.90;1.00;;;;;;4939589;29;20194;-88
2023/11/10 02:27:09;;;;;;;5.60;1.27;;;8.90;1.00;;;;;;4962202;28;20247;-88
2023/11/10 02:29:39;;;;;;;7.40;1.80;;;8.90;1.00;;;;;;4948744;29;20979;-88
2023/11/10 02:32:05;;;;;;;3.33;1.57;;;8.90;1.00;;;;;;4942417;29;20197;-89
2023/11/10 02:34:30;;;;;;;3.73;1.17;;;8.90;1.00;;;;;;4942557;29;20508;-88
2023/11/10 02:36:57;;;;;;;4.00;1.23;;;8.90;1.00;;;;;;4958018;28;20751;-88
2023/11/10 02:39:23;;;;;;;6.43;1.40;;;8.90;1.00;;;;;;4944564;28;20198;-89
2023/11/10 02:41:52;;;;;;;3.80;1.57;;;8.90;1.00;;;;;;4947468;28;20440;-89
2023/11/10 02:44:18;;;;;;;4.43;1.03;;;8.90;1.00;;;;;;4941347;29;20544;-88
2023/11/10 02:46:43;;;;;;;5.73;1.90;;;8.90;1.00;;;;;;4933533;29;20501;-88
2023/11/10 02:49:09;;;;;;;6.63;1.40;;;8.90;1.00;;;;;;4940642;29;20508;-88
2023/11/10 02:51:34;;;;;;;2.13;1.50;;;8.90;1.00;;;;;;4936165;29;20201;-89
2023/11/10 02:54:00;;;;;;;5.00;1.50;;;9.00;1.00;;;;;;4949431;29;20213;-89
2023/11/10 02:56:25;;;;;;;5.63;1.40;;;8.90;1.00;;;;;;4940093;29;20222;-88
2023/11/10 02:58:51;;;;;;;2.57;1.40;;;8.90;1.00;;;;;;4940351;29;20193;-88
2023/11/10 03:01:21;;;;;;;4.17;1.47;;;8.90;1.00;;;;;;4949914;29;20189;-88
2023/11/10 03:03:47;;;;;;;2.10;1.30;;;8.90;1.00;;;;;;4950054;28;20444;-88
2023/11/10 03:06:13;;;;;;;4.90;1.60;;;8.90;90.20;;;;;;4945421;29;20457;-88
2023/11/10 03:08:38;;;;;;;6.07;1.70;;;8.90;99.90;;;;;;4938769;29;20245;-89
2023/11/10 03:11:04;;;;;;;3.40;1.17;;;8.90;99.90;;;;;;4946324;29;20221;-87
2023/11/10 03:13:29;;;;;;;6.20;2.07;;;8.90;99.90;;;;;;4946009;29;20687;-87
2023/11/10 03:15:55;;;;;;;4.40;1.50;;;8.90;99.90;;;;;;4949291;29;20200;-89
2023/11/10 03:18:20;;;;;;;5.63;1.67;;;8.90;99.90;;;;;;4945875;29;20214;-88
2023/11/10 03:20:47;;;;;;;3.90;1.53;;;8.90;99.90;;;;;;4947305;29;20681;-88
2023/11/10 03:23:12;;;;;;;5.73;1.60;;;9.00;99.90;;;;;;4946368;29;20637;-88
2023/11/10 03:25:38;;;;;;;5.83;1.80;;;9.00;99.90;;;;;;4948019;29;20480;-88
2023/11/10 03:28:03;;;;;;;4.50;1.30;;;9.00;99.90;;;;;;4965429;28;20292;-88
2023/11/10 03:30:29;;;;;;;4.57;1.77;;;9.00;99.90;;;;;;4940278;29;20241;-88
2023/11/10 03:32:54;;;;;;;4.90;2.17;;;9.00;99.90;;;;;;4946103;29;20742;-88
2023/11/10 03:35:20;;;;;;;5.47;1.60;;;9.00;99.90;;;;;;4953515;29;20188;-87
2023/11/10 03:37:46;;;;;;;7.70;1.87;;;9.00;99.90;;;;;;4954211;29;20232;-87
2023/11/10 03:40:12;;;;;;;2.80;1.27;;;9.00;99.90;;;;;;4939664;29;20215;-87
2023/11/10 03:42:37;;;;;;;6.40;1.40;;;9.00;99.90;;;;;;4947049;28;20214;-87
2023/11/10 03:45:03;;;;;;;6.20;1.60;;;8.90;99.90;;;;;;4949646;29;21038;-88
2023/11/10 03:47:29;;;;;;;9.43;1.40;;;8.90;99.90;;;;;;4946685;29;20645;-86
2023/11/10 03:49:54;;;;;;;3.53;1.50;;;8.90;99.90;;;;;;4947641;29;20500;-88
2023/11/10 03:52:20;;;;;;;3.27;1.20;;;8.90;99.90;;;;;;4946158;29;20181;-86
2023/11/10 03:54:46;;;;;;;4.77;1.33;;;8.90;99.90;;;;;;4946482;29;20217;-87
2023/11/10 03:57:11;;;;;;;2.80;1.47;;;8.90;99.90;;;;;;4947102;29;20213;-87
2023/11/10 03:59:40;;;;;;;3.47;1.40;;;8.90;99.90;;;;;;4951355;29;20566;-87
2023/11/10 04:02:06;;;;;;;5.57;1.30;;;8.90;99.90;;;;;;4940958;29;20206;-86
2023/11/10 04:04:32;;;;;;;5.07;1.77;;;8.90;99.90;;;;;;4949540;28;21038;-87
2023/11/10 04:06:57;;;;;;;4.43;1.50;;;9.00;99.90;;;;;;4950473;29;20542;-88
2023/11/10 04:09:24;;;;;;;2.10;1.60;;;9.00;99.90;;;;;;4948893;28;20210;-87
2023/11/10 04:11:49;;;;;;;5.97;1.80;;;9.00;99.90;;;;;;4950424;29;20444;-87
2023/11/10 04:14:15;;;;;;;5.73;1.70;;;9.00;99.90;;;;;;4943946;29;20437;-87
2023/11/10 04:16:41;;;;;;;5.30;1.50;;;8.90;99.90;;;;;;4942445;29;20202;-88
2023/11/10 04:19:07;;;;;;;3.63;2.10;;;8.90;99.90;;;;;;4943592;28;20213;-87
2023/11/10 04:21:33;;;;;;;2.80;1.30;;;8.90;98.00;;;;;;4947033;28;20184;-87
2023/11/10 04:23:59;;;;;;;1.40;1.20;;;8.80;99.90;;;;;;4940779;29;20524;-87
2023/11/10 04:26:24;;;;;;;1.77;1.40;;;8.80;99.90;;;;;;4942413;29;20184;-88
2023/11/10 04:28:50;;;;;;;2.93;1.53;;;8.70;99.90;;;;;;4958859;28;20209;-87
2023/11/10 04:31:16;;;;;;;6.50;1.70;;;8.70;99.90;;;;;;4945439;29;20247;-87
2023/11/10 04:33:44;;;;;;;6.07;2.33;;;8.70;99.90;;;;;;4957968;28;20651;-85
2023/11/10 04:36:12;;;;;;;6.20;1.60;;;8.60;99.90;;;;;;4939265;29;20448;-87
2023/11/10 04:38:39;;;;;;;5.80;1.77;;;8.60;99.90;;;;;;4939796;29;20447;-87
2023/11/10 04:41:05;;;;;;;2.40;1.20;;;8.60;99.90;;;;;;4960793;28;20533;-85
2023/11/10 04:43:30;;;;;;;2.30;1.60;;;8.60;99.90;;;;;;4951901;29;20527;-87
2023/11/10 04:45:56;;;;;;;6.07;1.33;;;8.60;99.90;;;;;;4946092;29;20671;-87
2023/11/10 04:48:21;;;;;;;2.47;1.57;;;8.60;99.90;;;;;;4943125;29;20292;-85
2023/11/10 04:50:47;;;;;;;6.93;1.30;;;8.60;99.90;;;;;;4953474;28;20214;-87
2023/11/10 04:53:13;;;;;;;4.13;1.50;;;8.70;99.90;;;;;;4942879;29;20493;-86
2023/11/10 04:55:42;;;;;;;5.23;1.60;;;8.70;99.90;;;;;;4947654;28;20190;-86
2023/11/10 04:58:08;;;;;;;3.20;1.17;;;8.70;99.90;;;;;;4959766;28;20530;-87
2023/11/10 05:00:33;;;;;;;2.60;1.10;;;8.80;99.90;;;;;;4939568;29;20590;-87
2023/11/10 05:03:03;;;;;;;5.47;1.23;;;8.80;99.90;;;;;;4946829;29;20280;-87
2023/11/10 05:05:29;;;;;;;1.50;1.00;;;8.80;99.90;;;;;;4952074;28;20186;-87
2023/11/10 05:07:55;;;;;;;3.73;1.07;;;8.80;99.90;;;;;;4951503;28;20457;-87
2023/11/10 05:10:21;;;;;;;4.97;1.50;;;8.80;99.90;;;;;;4942291;29;20239;-89
2023/11/10 05:12:46;;;;;;;3.37;1.57;;;8.80;99.90;;;;;;4947002;29;20471;-86
2023/11/10 05:15:12;;;;;;;5.83;2.70;;;8.80;99.90;;;;;;4962693;28;20186;-87
2023/11/10 05:17:39;;;;;;;6.00;2.63;;;8.80;99.90;;;;;;4951474;29;20591;-86
2023/11/10 05:20:12;;;;;;;6.60;1.27;;;8.80;99.90;;;;;;4944436;28;20441;-86
2023/11/10 05:22:40;;;;;;;4.50;1.20;;;8.80;99.90;;;;;;4939685;29;20499;-87
2023/11/10 05:25:06;;;;;;;3.67;1.40;;;8.80;99.90;;;;;;4940628;29;20473;-86
2023/11/10 05:27:32;;;;;;;4.63;1.37;;;8.80;99.90;;;;;;4947043;28;20464;-88
2023/11/10 05:29:57;;;;;;;3.00;1.30;;;8.80;99.90;;;;;;4951222;29;20483;-85
2023/11/10 05:32:23;;;;;;;3.13;1.13;;;8.80;99.90;;;;;;4944100;29;20202;-86
2023/11/10 05:34:50;;;;;;;5.90;1.30;;;8.80;99.90;;;;;;4976523;28;20220;-87
2023/11/10 05:37:22;;;;;;;3.10;1.30;;;8.80;99.90;;;;;;4950082;28;20198;-86
2023/11/10 05:39:50;;;;;;;5.47;1.50;;;8.80;99.90;;;;;;4946493;28;20562;-87
2023/11/10 05:42:17;;;;;;;3.57;1.20;;;8.80;99.90;;;;;;4948575;29;20440;-87
2023/11/10 05:44:42;;;;;;;7.20;1.50;;;8.80;99.90;;;;;;4947019;28;20441;-86
2023/11/10 05:47:08;;;;;;;3.57;1.30;;;8.80;99.90;;;;;;4957511;28;20581;-87
2023/11/10 05:49:33;;;;;;;3.63;1.30;;;8.80;67.80;;;;;;4942467;28;20619;-87
2023/11/10 05:51:59;;;;;;;3.47;1.53;;;8.80;1.00;;;;;;4947177;29;20207;-86
2023/11/10 05:54:25;;;;;;;4.80;1.40;;;8.90;8.20;;;;;;4949048;28;20551;-87
2023/11/10 05:56:51;;;;;;;10.03;2.90;;;8.90;1.00;;;;;;4943668;28;20469;-87
2023/11/10 05:59:17;;;;;;;3.40;1.57;;;8.90;1.00;;;;;;4949857;29;20465;-86
2023/11/10 06:01:42;;;;;;;2.23;1.40;;;8.90;1.00;;;;;;4946597;29;20528;-87
2023/11/10 06:04:08;;;;;;;3.23;1.53;;;8.90;99.90;;;;;;4944815;29;20597;-87
2023/11/10 06:06:33;;;;;;;1.80;1.13;;;8.80;1.00;;;;;;4948123;29;20216;-87
2023/11/10 06:08:59;;;;;;;2.07;1.00;;;8.80;99.90;;;;;;4947168;29;20229;-87
2023/11/10 06:11:24;;;;;;;3.53;1.20;;;8.80;99.90;;;;;;4938317;29;20185;-86
2023/11/10 06:13:51;;;;;;;2.67;1.27;;;8.80;99.90;;;;;;4943437;29;20215;-87
2023/11/10 06:16:17;;;;;;;1.43;0.97;;;8.80;99.90;;;;;;4947725;29;20197;-86
2023/11/10 06:18:44;;;;;;;2.80;1.13;;;8.80;1.00;;;;;;4944496;28;20951;-87
2023/11/10 06:21:11;;;;;;;5.33;1.57;;;8.90;1.00;;;;;;4950810;28;20468;-85
2023/11/10 06:23:37;;;;;;;3.93;1.60;;;8.90;1.00;;;;;;4937579;29;20521;-88
2023/11/10 06:26:02;;;;;;;4.50;1.43;;;8.90;8.20;;;;;;4944631;29;20505;-87
2023/11/10 06:28:28;;;;;;;2.37;1.10;;;8.80;68.00;;;;;;4944920;28;20878;-87
2023/11/10 06:30:55;;;;;;;2.53;1.10;;;8.80;99.90;;;;;;4940911;28;20571;-87
2023/11/10 06:33:21;;;;;;;3.60;1.30;;;8.80;99.90;;;;;;4949147;29;20196;-86
2023/11/10 06:35:47;;;;;;;2.80;1.40;;;8.80;99.90;;;;;;4940057;28;20441;-86
2023/11/10 06:38:13;;;;;;;10.93;1.70;;;8.80;26.90;;;;;;4956902;28;20606;-88
2023/11/10 06:40:38;;;;;;;6.00;1.30;;;8.80;99.90;;;;;;4945399;29;20499;-86
2023/11/10 06:43:04;;;;;;;6.80;1.50;;;8.90;99.90;;;;;;4954479;29;20269;-86
2023/11/10 06:45:30;;;;;;;3.10;1.13;;;8.90;1.00;;;;;;4946053;29;20201;-87
2023/11/10 06:47:59;;;;;;;3.00;1.63;;;8.90;99.90;;;;;;4954876;29;20460;-88
2023/11/10 06:50:24;;;;;;;3.97;1.13;;;8.90;33.80;;;;;;4952716;29;20692;-88
2023/11/10 06:52:50;;;;;;;2.20;1.40;;;8.90;1.00;;;;;;4956973;29;20443;-86
2023/11/10 06:55:16;;;;;;;5.50;1.50;;;8.90;1.00;;;;;;4949358;29;20185;-86
2023/11/10 06:57:42;;;;;;;2.63;1.17;;;8.90;99.90;;;;;;4945134;29;20754;-88
2023/11/10 07:00:10;;;;;;;3.43;1.20;;;8.90;99.90;;;;;;4949305;28;20525;-88
2023/11/10 07:02:36;;;;;;;2.57;0.97;;;8.90;99.90;;;;;;4944149;29;20444;-87
2023/11/10 07:05:02;;;;;;;6.33;2.20;;;8.90;99.90;;;;;;4952097;28;20931;-84
2023/11/10 07:07:27;;;;;;;5.83;1.23;;;9.00;1.00;;;;;;4939647;29;20201;-87
2023/11/10 07:09:53;;;;;;;2.00;1.10;;;9.00;99.90;;;;;;4940857;28;20210;-86
2023/11/10 07:12:19;;;;;;;3.17;1.40;;;9.10;99.90;;;;;;4945932;28;20245;-85
2023/11/10 07:14:44;;;;;;;4.00;1.73;;;9.10;1.00;;;;;;4948405;29;20189;-86
2023/11/10 07:17:14;;;;;;;4.10;1.20;;;9.20;99.90;;;;;;4950000;28;20467;-84
2023/11/10 07:19:39;;;;;;;5.40;1.40;;;9.40;99.90;;;;;;4945746;28;20274;-86
2023/11/10 07:22:05;;;;;;;3.27;1.37;;;9.60;99.90;;;;;;4943795;29;20754;-86
2023/11/10 07:24:30;;;;;;;3.03;1.50;;;9.90;97.00;;;;;;4944592;29;20189;-87
2023/11/10 07:26:56;;;;;;;3.20;1.00;;;10.40;99.90;;;;;;4949884;29;20688;-86
2023/11/10 07:29:21;;;;;;;3.10;1.37;;;10.50;47.20;;;;;;4945214;29;20228;-85
2023/11/10 07:31:48;;;;;;;4.07;1.60;;;10.50;1.00;;;;;;4939266;29;20194;-86
2023/11/10 07:34:14;;;;;;;2.83;1.23;;;10.50;1.00;;;;;;4951753;29;20492;-86
2023/11/10 07:36:40;;;;;;;3.00;1.40;;;10.80;1.00;;;;;;4946021;29;21039;-87
2023/11/10 07:39:06;;;;;;;6.70;1.37;;;12.00;99.90;;;;;;4956114;28;20584;-85
2023/11/10 07:41:34;;;;;;;3.03;1.40;;;13.10;1.00;;;;;;4952127;28;20193;-86
2023/11/10 07:44:00;;;;;;;3.40;1.47;;;13.50;1.00;;;;;;4950835;28;20940;-86
2023/11/10 07:46:27;;;;;;;4.97;1.13;;;13.80;1.00;;;;;;4945352;29;20439;-86
2023/11/10 07:48:52;;;;;;;4.17;1.67;;;15.10;1.00;;;;;;4944474;29;20630;-87
2023/11/10 07:51:18;;;;;;;6.70;1.50;;;17.00;99.90;;;;;;4955795;29;20444;-87
2023/11/10 07:53:43;;;;;;;2.43;1.10;;;18.20;99.90;;;;;;4961707;29;20177;-86
2023/11/10 07:56:09;;;;;;;3.90;1.30;;;18.00;99.90;;;;;;4962470;28;20314;-86
2023/11/10 07:58:36;;;;;;;3.53;1.30;;;17.30;99.90;;;;;;4962603;29;20209;-88
2023/11/10 08:01:23;;;;;;;7.00;1.57;;;17.40;99.90;;;;;;4969262;28;20894;-86
2023/11/10 08:03:55;;;;;;;4.40;1.67;;;17.10;99.90;;;;;;4950357;29;20449;-86
2023/11/10 08:06:24;;;;;;;6.10;2.13;;;17.80;99.90;;;;;;4961664;28;20473;-85
2023/11/10 08:08:51;;;;;;;5.07;1.53;;;19.10;99.90;;;;;;4960172;29;20421;-87
2023/11/10 08:11:21;;;;;;;5.73;1.23;;;20.20;99.90;;;;;;4960044;29;20424;-86
2023/11/10 08:13:48;;;;;;;6.40;1.60;;;21.20;99.90;;;;;;4961418;28;20790;-87
2023/11/10 08:16:15;;;;;;;9.03;1.83;;;21.70;99.90;;;;;;4959655;29;20429;-88
2023/11/10 08:18:41;;;;;;;8.70;1.90;;;22.10;99.90;;;;;;4942571;29;20464;-87
2023/11/10 08:21:21;;;;;;;5.60;1.30;;;22.30;99.90;;;;;;4973994;28;20425;-87
2023/11/10 08:23:47;;;;;;;5.50;1.57;;;22.30;99.90;;;;;;4974075;28;20428;-86
2023/11/10 08:26:15;;;;;;;7.30;2.03;;;22.00;99.90;;;;;;4959904;29;20937;-87
2023/11/10 08:28:41;;;;;;;6.43;1.60;;;20.80;99.90;;;;;;4962456;28;20561;-85
2023/11/10 08:31:13;;;;;;;4.47;1.10;;;20.30;99.90;;;;;;4962077;29;20409;-86
2023/11/10 08:33:40;;;;;;;4.87;1.70;;;21.10;99.90;;;;;;4961334;29;20413;-86
2023/11/10 08:36:10;;;;;;;3.70;1.83;;;21.80;99.90;;;;;;4962145;28;20796;-86
2023/11/10 08:38:38;;;;;;;5.93;1.13;;;22.50;99.90;;;;;;4960887;29;20867;-87
2023/11/10 08:41:04;;;;;;;3.87;1.20;;;23.50;99.90;;;;;;4960671;29;20452;-86
2023/11/10 08:43:33;;;;;;;5.90;1.57;;;24.40;99.90;;;;;;4952354;28;20529;-86
2023/11/10 08:46:02;;;;;;;10.40;1.67;;;24.90;99.90;;;;;;4953367;29;20943;-87
2023/11/10 08:48:28;;;;;;;3.23;1.40;;;25.50;99.90;;;;;;4956390;29;20487;-86
2023/11/10 08:50:56;;;;;;;4.37;1.50;;;25.70;99.90;;;;;;4946006;29;20421;-88
2023/11/10 08:53:25;;;;;;;6.10;1.83;;;26.10;99.90;;;;;;4947428;29;20428;-86
2023/11/10 08:55:51;;;;;;;9.23;1.73;;;25.80;99.90;;;;;;4939125;29;20423;-86
2023/11/10 08:58:18;;;;;;;4.53;1.50;;;25.20;99.90;;;;;;4945553;29;20470;-89
2023/11/10 09:00:43;;;;;;;4.70;1.70;;;23.90;99.90;;;;;;4943951;29;20573;-88
2023/11/10 09:03:09;;;;;;;3.00;1.50;;;22.80;99.90;;;;;;4939674;29;20891;-88
2023/11/10 09:05:35;;;;;;;5.93;1.80;;;22.10;99.90;;;;;;4959622;28;20179;-87
2023/11/10 09:08:00;;;;;;;5.30;1.27;;;21.00;99.90;;;;;;4942331;29;20236;-88
2023/11/10 09:10:26;;;;;;;4.37;1.30;;;20.30;99.90;;;;;;4942276;29;20182;-85
2023/11/10 09:12:51;;;;;;;7.43;1.93;;;19.90;99.90;;;;;;4956166;29;20185;-86
2023/11/10 09:15:24;;;;;;;6.97;1.60;;;20.20;99.90;;;;;;4944083;29;20186;-88
2023/11/10 09:17:49;;;;;;;6.90;2.00;;;20.50;99.90;;;;;;4949906;28;20296;-88
2023/11/10 09:21:02;;;;;;;6.27;1.57;;;20.50;99.90;;;;;;4948653;28;20492;-88
2023/11/10 09:23:28;;;;;;;4.90;1.70;;;20.50;99.90;;;;;;4956025;29;20216;-86
2023/11/10 09:25:56;;;;;;;5.77;1.67;;;19.20;99.90;;;;;;4946296;28;20434;-87
2023/11/10 09:28:24;;;;;;;6.87;1.83;;;18.80;99.90;;;;;;4940702;29;20293;-85
2023/11/10 09:30:54;;;;;;;5.07;1.60;;;18.90;99.90;;;;;;4942404;29;20438;-86
2023/11/10 09:33:21;;;;;;;3.90;1.27;;;18.00;99.90;;;;;;4943735;29;20944;-86
2023/11/10 09:35:48;;;;;;;2.93;1.47;;;17.30;99.90;;;;;;4958492;28;20448;-87
2023/11/10 09:38:13;;;;;;;3.10;1.20;;;16.80;99.90;;;;;;4954398;29;20530;-86
2023/11/10 09:40:42;;;;;;;4.53;1.40;;;16.40;99.90;;;;;;4947647;29;20969;-87
2023/11/10 09:43:12;;;;;;;4.63;1.40;;;15.80;99.90;;;;;;4964686;28;20735;-86
2023/11/10 09:45:41;;;;;;;4.60;1.30;;;15.40;99.90;;;;;;4942937;29;20440;-86
2023/11/10 09:48:08;;;;;;;7.07;2.00;;;15.00;99.90;;;;;;4959737;29;20445;-88
2023/11/10 09:50:38;;;;;;;6.63;3.17;;;14.80;99.90;;;;;;4946988;28;20454;-86
2023/11/10 09:53:04;;;;;;;3.90;1.77;;;14.70;99.90;;;;;;4941016;28;20444;-86
2023/11/10 09:55:31;;;;;;;5.37;1.47;;;14.90;99.90;;;;;;4953909;29;20433;-87
2023/11/10 09:58:00;;;;;;;4.80;1.43;;;15.30;99.90;;;;;;4940622;29;20467;-88
2023/11/10 10:00:27;;;;;;;6.70;1.50;;;15.50;99.90;;;;;;4941971;29;20492;-87
2023/11/10 10:02:53;;;;;;;8.07;1.70;;;15.50;99.90;;;;;;4955218;29;20528;-88
2023/11/10 10:05:20;;;;;;;7.30;1.20;;;15.50;99.90;;;;;;4959631;28;20457;-88
2023/11/10 10:07:46;;;;;;;7.20;1.90;;;15.40;99.90;;;;;;4955011;29;20204;-87
2023/11/10 10:10:12;;;;;;;4.73;1.33;;;15.30;99.90;;;;;;4952307;29;20445;-88
2023/11/10 10:12:38;;;;;;;13.60;2.77;;;15.20;99.90;;;;;;4945674;28;20630;-88
2023/11/10 10:15:05;;;;;;;11.53;5.13;;;15.00;99.90;;;;;;4959040;29;20449;-88
2023/11/10 10:17:37;;;;;;;13.70;4.60;;;14.70;99.90;;;;;;4954197;29;20496;-86
2023/11/10 10:20:14;;;;;;;5.57;1.43;;;14.40;99.90;;;;;;4954369;29;20504;-86
2023/11/10 10:22:48;;;;;;;6.47;2.13;;;14.10;99.90;;;;;;4952736;29;20432;-87
2023/11/10 10:25:17;;;;;;;2.70;1.47;;;13.80;99.90;;;;;;4955572;29;20504;-88
2023/11/10 10:27:43;;;;;;;9.30;2.00;;;13.60;99.90;;;;;;4940981;29;20870;-87
2023/11/10 10:30:10;;;;;;;6.20;1.93;;;13.20;99.90;;;;;;4953989;29;20449;-86
2023/11/10 10:32:38;;;;;;;5.97;1.63;;;12.90;99.90;;;;;;4944126;28;20437;-88
2023/11/10 10:35:07;;;;;;;4.80;1.80;;;12.70;99.90;;;;;;4959159;29;21028;-86
2023/11/10 10:37:35;;;;;;;7.70;1.80;;;12.50;99.90;;;;;;4958152;29;20464;-88
2023/11/10 10:40:01;;;;;;;12.87;1.90;;;12.30;99.90;;;;;;4956650;29;20480;-88
2023/11/10 10:42:34;;;;;;;11.83;1.60;;;12.20;99.90;;;;;;4946695;29;20425;-88
2023/11/10 10:45:04;;;;;;;5.53;1.30;;;12.20;99.90;;;;;;4945747;29;20505;-87
2023/11/10 10:47:34;;;;;;;7.93;1.30;;;12.20;99.90;;;;;;4958241;29;21013;-87
2023/11/10 10:50:04;;;;;;;7.20;1.57;;;12.10;99.90;;;;;;4966729;28;20539;-87
2023/11/10 10:52:33;;;;;;;4.00;1.50;;;12.10;99.90;;;;;;4961657;28;20449;-88
2023/11/10 10:55:03;;;;;;;4.67;1.30;;;12.00;99.90;;;;;;4956015;29;20958;-86
2023/11/10 10:57:34;;;;;;;7.83;1.77;;;11.90;99.90;;;;;;4966126;28;20548;-87
2023/11/10 11:00:09;;;;;;;4.43;1.57;;;11.90;1.00;;;;;;4946912;29;21053;-86
2023/11/10 11:02:41;;;;;;;5.87;1.53;;;11.90;99.90;;;;;;4965376;28;20423;-87
2023/11/10 11:05:22;;;;;;;6.57;2.20;;;11.80;99.90;;;;;;4956645;29;20429;-86
2023/11/10 11:08:28;;;;;;;3.63;1.13;;;11.80;1.00;;;;;;4944988;29;20508;-87
2023/11/10 11:11:00;;;;;;;4.43;1.10;;;11.80;1.00;;;;;;4953028;29;20440;-85
2023/11/10 11:13:55;;;;;;;4.57;1.13;;;11.80;1.00;;;;;;4960559;29;20527;-86
2023/11/10 11:16:48;;;;;;;4.90;1.10;;;11.80;1.00;;;;;;4949660;29;20433;-85
2023/11/10 11:19:28;;;;;;;4.27;0.90;;;11.80;1.00;;;;;;4960670;29;20465;-87
2023/11/10 11:22:00;;;;;;;8.73;1.90;;;11.80;1.00;;;;;;4945192;29;20496;-87
2023/11/10 11:24:31;;;;;;;3.30;1.00;;;11.80;1.00;;;;;;4954185;28;20492;-85
2023/11/10 11:27:01;;;;;;;3.07;0.80;;;11.70;1.00;;;;;;4952230;28;20445;-86
2023/11/10 11:29:44;;;;;;;3.47;1.30;;;11.80;1.00;;;;;;4946870;29;20469;-86
2023/11/10 11:32:22;;;;;;;1.80;0.90;;;11.90;1.00;;;;;;4952162;28;21033;-86
2023/11/10 11:34:52;;;;;;;1.40;0.90;;;12.00;1.00;;;;;;4956394;29;20471;-85
2023/11/10 11:37:18;;;;;;;1.77;1.13;;;12.10;1.00;;;;;;4957117;28;20465;-88
2023/11/10 11:39:43;;;;;;;2.80;1.10;;;12.20;1.00;;;;;;4944234;29;20473;-86
2023/11/10 11:42:09;;;;;;;2.50;1.03;;;12.30;1.00;;;;;;4961351;29;20185;-87
2023/11/10 11:44:36;;;;;;;1.40;0.80;;;12.30;1.00;;;;;;4953670;28;20193;-86
2023/11/10 11:47:09;;;;;;;1.57;0.80;;;12.20;1.00;;;;;;4957587;28;20293;-87
2023/11/10 11:49:38;;;;;;;2.73;1.00;;;12.10;99.90;;;;;;4959791;29;20561;-87
2023/11/10 11:52:11;;;;;;;2.00;1.10;;;12.10;1.00;;;;;;4960753;29;21014;-87
2023/11/10 11:54:47;;;;;;;2.17;1.20;;;12.00;1.00;;;;;;4957881;28;20430;-88
2023/11/10 11:57:15;;;;;;;2.43;1.30;;;12.00;1.00;;;;;;4943521;29;20465;-86
2023/11/10 11:59:44;;;;;;;1.57;0.80;;;11.90;1.00;;;;;;4944731;29;20484;-85
2023/11/10 12:02:14;;;;;;;1.50;0.80;;;12.00;1.00;;;;;;4956580;29;20441;-87
2023/11/10 12:04:48;;;;;;;3.73;0.97;;;12.00;1.00;;;;;;4966996;28;20429;-87
2023/11/10 12:07:17;;;;;;;2.30;0.90;;;12.10;1.00;;;;;;4942337;29;20474;-88
2023/11/10 12:09:45;;;;;;;2.67;0.83;;;12.10;1.00;;;;;;4951429;28;20512;-85
2023/11/10 12:12:13;;;;;;;3.63;0.97;;;12.20;1.00;;;;;;4960108;28;20558;-87
2023/11/10 12:14:46;;;;;;;3.70;0.90;;;12.10;1.00;;;;;;4961171;29;20919;-86
2023/11/10 12:17:19;;;;;;;2.37;0.70;;;12.10;1.00;;;;;;4943620;29;20456;-85
2023/11/10 12:19:49;;;;;;;2.83;0.87;;;12.10;1.00;;;;;;4957814;28;20971;-86
2023/11/10 12:22:19;;;;;;;2.13;1.00;;;12.00;1.00;;;;;;4942767;29;20485;-88
2023/11/10 12:24:48;;;;;;;1.70;0.83;;;11.90;1.00;;;;;;4942601;29;20409;-86
2023/11/10 12:27:17;;;;;;;3.63;1.00;;;11.70;1.00;;;;;;4941568;29;20456;-85
2023/11/10 12:29:46;;;;;;;2.03;0.90;;;11.70;1.00;;;;;;4943131;29;20940;-85
2023/11/10 12:32:19;;;;;;;1.43;0.70;;;11.60;1.00;;;;;;4949049;29;20789;-85
2023/11/10 12:34:49;;;;;;;2.70;0.93;;;11.50;48.60;;;;;;4941769;29;20446;-87
2023/11/10 12:37:20;;;;;;;4.70;1.10;;;11.40;99.90;;;;;;4945501;29;20429;-86
2023/11/10 12:39:53;;;;;;;6.83;1.30;;;11.30;1.00;;;;;;4958053;28;20473;-86
2023/11/10 12:42:27;;;;;;;1.27;0.80;;;11.20;1.00;;;;;;4959845;28;20421;-86
2023/11/10 12:45:07;;;;;;;1.73;0.90;;;11.10;99.90;;;;;;4940712;29;20429;-88
2023/11/10 12:47:33;;;;;;;1.87;0.93;;;11.00;42.30;;;;;;4955662;29;20444;-86
2023/11/10 12:50:08;;;;;;;1.40;0.80;;;10.90;99.90;;;;;;4957818;29;20806;-88
2023/11/10 12:52:38;;;;;;;6.03;2.30;;;10.80;1.00;;;;;;4956708;29;20275;-87
2023/11/10 12:55:05;;;;;;;5.17;1.10;;;10.70;99.90;;;;;;4956849;28;20432;-87
2023/11/10 12:57:32;;;;;;;3.00;1.00;;;10.70;1.00;;;;;;4966070;28;20471;-89